sensor_id;sensor_type;location;lat;lon;timestamp;pressure;altitude;pressure_sealevel;temperature;humidity
54042;BME280;41156;51.508;5.406;2022-11-30T00:02:09;102127.19;;;6.82;100.00
54042;BME280;41156;51.508;5.406;2022-11-30T00:05:09;102132.56;;;6.82;100.00
54042;BME280;41156;51.508;5.406;2022-11-30T00:08:09;102136.97;;;6.83;100.00
54042;BME280;41156;51.508;5.406;2022-11-30T00:11:12;102130.72;;;6.82;100.00
54042;BME280;41156;51.508;5.406;2022-11-30T00:14:12;102133.25;;;6.84;100.00
54042;BME280;41156;51.508;5.406;2022-11-30T00:17:12;102126.06;;;6.84;100.00
54042;BME280;41156;51.508;5.406;2022-11-30T00:20:14;102131.44;;;6.84;100.00
54042;BME280;41156;51.508;5.406;2022-11-30T00:23:15;102135.78;;;6.85;100.00
54042;BME280;41156;51.508;5.406;2022-11-30T00:26:17;102138.47;;;6.85;100.00
54042;BME280;41156;51.508;5.406;2022-11-30T00:29:18;102133.94;;;6.86;100.00
54042;BME280;41156;51.508;5.406;2022-11-30T00:32:18;102135.63;;;6.87;100.00
54042;BME280;41156;51.508;5.406;2022-11-30T00:35:18;102133.09;;;6.85;100.00
54042;BME280;41156;51.508;5.406;2022-11-30T00:38:18;102139.16;;;6.88;100.00
54042;BME280;41156;51.508;5.406;2022-11-30T00:41:19;102134.63;;;6.88;100.00
54042;BME280;41156;51.508;5.406;2022-11-30T00:44:19;102141.00;;;6.87;100.00
54042;BME280;41156;51.508;5.406;2022-11-30T00:47:19;102146.22;;;6.89;100.00
54042;BME280;41156;51.508;5.406;2022-11-30T00:50:20;102148.06;;;6.88;100.00
54042;BME280;41156;51.508;5.406;2022-11-30T00:53:20;102148.91;;;6.89;100.00
54042;BME280;41156;51.508;5.406;2022-11-30T00:56:20;102146.38;;;6.87;100.00
54042;BME280;41156;51.508;5.406;2022-11-30T00:59:21;102143.53;;;6.89;100.00
54042;BME280;41156;51.508;5.406;2022-11-30T01:02:21;102144.69;;;6.86;100.00
54042;BME280;41156;51.508;5.406;2022-11-30T01:05:21;102151.75;;;6.87;100.00
54042;BME280;41156;51.508;5.406;2022-11-30T01:08:23;102149.22;;;6.85;100.00
54042;BME280;41156;51.508;5.406;2022-11-30T01:11:28;102152.75;;;6.86;100.00
54042;BME280;41156;51.508;5.406;2022-11-30T01:14:29;102154.59;;;6.85;100.00
54042;BME280;41156;51.508;5.406;2022-11-30T01:17:29;102159.13;;;6.85;100.00
54042;BME280;41156;51.508;5.406;2022-11-30T01:20:29;102146.53;;;6.85;100.00
54042;BME280;41156;51.508;5.406;2022-11-30T01:23:30;102141.00;;;6.87;100.00
54042;BME280;41156;51.508;5.406;2022-11-30T01:26:30;102149.06;;;6.87;100.00
54042;BME280;41156;51.508;5.406;2022-11-30T01:29:30;102150.06;;;6.86;100.00
54042;BME280;41156;51.508;5.406;2022-11-30T01:32:30;102154.59;;;6.85;100.00
54042;BME280;41156;51.508;5.406;2022-11-30T01:35:31;102150.06;;;6.86;100.00
54042;BME280;41156;51.508;5.406;2022-11-30T01:38:40;102149.75;;;6.89;100.00
54042;BME280;41156;51.508;5.406;2022-11-30T01:41:40;102144.69;;;6.86;100.00
54042;BME280;41156;51.508;5.406;2022-11-30T01:47:52;102153.75;;;6.85;100.00
54042;BME280;41156;51.508;5.406;2022-11-30T01:50:54;102148.38;;;6.85;100.00
54042;BME280;41156;51.508;5.406;2022-11-30T01:53:55;102157.59;;;6.82;100.00
54042;BME280;41156;51.508;5.406;2022-11-30T01:57:06;102163.13;;;6.81;100.00
54042;BME280;41156;51.508;5.406;2022-11-30T02:00:12;102167.81;;;6.79;100.00
54042;BME280;41156;51.508;5.406;2022-11-30T02:03:56;102171.53;;;6.78;100.00
54042;BME280;41156;51.508;5.406;2022-11-30T02:06:58;102172.19;;;6.80;100.00
54042;BME280;41156;51.508;5.406;2022-11-30T02:10:00;102173.19;;;6.79;100.00
54042;BME280;41156;51.508;5.406;2022-11-30T02:13:05;102168.50;;;6.81;100.00
54042;BME280;41156;51.508;5.406;2022-11-30T02:33:11;102167.34;;;6.83;100.00
54042;BME280;41156;51.508;5.406;2022-11-30T02:36:12;102167.34;;;6.83;100.00
54042;BME280;41156;51.508;5.406;2022-11-30T02:39:13;102177.25;;;6.83;100.00
54042;BME280;41156;51.508;5.406;2022-11-30T02:42:13;102169.88;;;6.85;100.00
54042;BME280;41156;51.508;5.406;2022-11-30T02:45:14;102180.63;;;6.85;100.00
54042;BME280;41156;51.508;5.406;2022-11-30T02:48:23;102171.88;;;6.83;100.00
54042;BME280;41156;51.508;5.406;2022-11-30T02:51:27;102180.94;;;6.82;100.00
54042;BME280;41156;51.508;5.406;2022-11-30T02:54:29;102183.63;;;6.82;100.00
54042;BME280;41156;51.508;5.406;2022-11-30T02:57:29;102186.16;;;6.83;100.00
54042;BME280;41156;51.508;5.406;2022-11-30T03:00:30;102182.63;;;6.83;100.00
54042;BME280;41156;51.508;5.406;2022-11-30T03:03:30;102187.00;;;6.84;100.00
54042;BME280;41156;51.508;5.406;2022-11-30T03:06:31;102186.31;;;6.82;100.00
54042;BME280;41156;51.508;5.406;2022-11-30T03:09:31;102184.63;;;6.81;100.00
54042;BME280;41156;51.508;5.406;2022-11-30T03:12:31;102185.78;;;6.78;100.00
54042;BME280;41156;51.508;5.406;2022-11-30T03:15:32;102183.25;;;6.77;100.00
54042;BME280;41156;51.508;5.406;2022-11-30T03:18:33;102186.09;;;6.75;100.00
54042;BME280;41156;51.508;5.406;2022-11-30T03:21:33;102187.09;;;6.74;100.00
54042;BME280;41156;51.508;5.406;2022-11-30T03:24:33;102179.88;;;6.75;100.00
54042;BME280;41156;51.508;5.406;2022-11-30T03:27:34;102185.25;;;6.75;100.00
54042;BME280;41156;51.508;5.406;2022-11-30T03:30:34;102182.72;;;6.73;100.00
54042;BME280;41156;51.508;5.406;2022-11-30T03:33:34;102179.38;;;6.71;100.00
54042;BME280;41156;51.508;5.406;2022-11-30T03:36:35;102188.25;;;6.72;100.00
54042;BME280;41156;51.508;5.406;2022-11-30T03:39:35;102184.19;;;6.67;100.00
54042;BME280;41156;51.508;5.406;2022-11-30T03:42:36;102188.88;;;6.65;100.00
54042;BME280;41156;51.508;5.406;2022-11-30T03:45:36;102182.00;;;6.63;100.00
54042;BME280;41156;51.508;5.406;2022-11-30T03:48:37;102188.03;;;6.65;100.00
54042;BME280;41156;51.508;5.406;2022-11-30T03:51:37;102185.50;;;6.63;100.00
54042;BME280;41156;51.508;5.406;2022-11-30T03:54:37;102185.81;;;6.60;100.00
54042;BME280;41156;51.508;5.406;2022-11-30T03:57:38;102193.03;;;6.60;100.00
54042;BME280;41156;51.508;5.406;2022-11-30T04:00:38;102193.03;;;6.60;100.00
54042;BME280;41156;51.508;5.406;2022-11-30T04:03:39;102188.50;;;6.60;100.00
54042;BME280;41156;51.508;5.406;2022-11-30T04:06:39;102183.97;;;6.61;100.00
54042;BME280;41156;51.508;5.406;2022-11-30T04:09:39;102191.03;;;6.62;100.00
54042;BME280;41156;51.508;5.406;2022-11-30T04:12:40;102187.50;;;6.61;100.00
54042;BME280;41156;51.508;5.406;2022-11-30T04:15:40;102191.88;;;6.62;100.00
54042;BME280;41156;51.508;5.406;2022-11-30T04:18:40;102185.81;;;6.60;100.00
54042;BME280;41156;51.508;5.406;2022-11-30T04:21:44;102187.81;;;6.58;100.00
54042;BME280;41156;51.508;5.406;2022-11-30T04:24:44;102190.50;;;6.58;100.00
54042;BME280;41156;51.508;5.406;2022-11-30T04:27:44;102194.03;;;6.59;100.00
54042;BME280;41156;51.508;5.406;2022-11-30T04:30:46;102192.50;;;6.56;100.00
54042;BME280;41156;51.508;5.406;2022-11-30T04:33:46;102194.03;;;6.59;100.00
54042;BME280;41156;51.508;5.406;2022-11-30T04:36:46;102191.34;;;6.59;100.00
54042;BME280;41156;51.508;5.406;2022-11-30T04:39:46;102192.16;;;6.59;100.00
54042;BME280;41156;51.508;5.406;2022-11-30T04:42:47;102190.50;;;6.58;100.00
54042;BME280;41156;51.508;5.406;2022-11-30T04:45:47;102194.84;;;6.59;100.00
54042;BME280;41156;51.508;5.406;2022-11-30T04:48:48;102195.88;;;6.58;100.00
54042;BME280;41156;51.508;5.406;2022-11-30T04:51:48;102203.25;;;6.56;100.00
54042;BME280;41156;51.508;5.406;2022-11-30T04:54:48;102200.72;;;6.55;100.00
54042;BME280;41156;51.508;5.406;2022-11-30T04:57:49;102196.50;;;6.52;100.00
54042;BME280;41156;51.508;5.406;2022-11-30T05:00:52;102202.16;;;6.49;100.00
54042;BME280;41156;51.508;5.406;2022-11-30T05:03:52;102196.41;;;6.44;100.00
54042;BME280;41156;51.508;5.406;2022-11-30T05:06:53;102194.03;;;6.41;100.00
54042;BME280;41156;51.508;5.406;2022-11-30T05:09:53;102201.41;;;6.39;100.00
54042;BME280;41156;51.508;5.406;2022-11-30T05:12:53;102203.56;;;6.35;100.00
54042;BME280;41156;51.508;5.406;2022-11-30T05:15:54;102204.53;;;6.34;100.00
54042;BME280;41156;51.508;5.406;2022-11-30T05:18:54;102207.38;;;6.33;100.00
54042;BME280;41156;51.508;5.406;2022-11-30T05:21:54;102207.38;;;6.33;100.00
54042;BME280;41156;51.508;5.406;2022-11-30T05:24:54;102211.91;;;6.32;100.00
54042;BME280;41156;51.508;5.406;2022-11-30T05:27:55;102213.09;;;6.29;100.00
54042;BME280;41156;51.508;5.406;2022-11-30T05:31:01;102208.31;;;6.23;100.00
54042;BME280;41156;51.508;5.406;2022-11-30T05:34:02;102210.31;;;6.21;100.00
54042;BME280;41156;51.508;5.406;2022-11-30T05:37:02;102222.34;;;6.17;100.00
54042;BME280;41156;51.508;5.406;2022-11-30T05:40:03;102208.22;;;6.15;100.00
54042;BME280;41156;51.508;5.406;2022-11-30T05:43:04;102223.50;;;6.15;100.00
54042;BME280;41156;51.508;5.406;2022-11-30T05:46:06;102230.97;;;6.11;100.00
54042;BME280;41156;51.508;5.406;2022-11-30T05:49:07;102218.44;;;6.11;100.00
54042;BME280;41156;51.508;5.406;2022-11-30T05:52:07;102225.63;;;6.11;100.00
54042;BME280;41156;51.508;5.406;2022-11-30T05:55:08;102235.53;;;6.10;100.00
54042;BME280;41156;51.508;5.406;2022-11-30T05:58:08;102239.19;;;6.09;100.00
54042;BME280;41156;51.508;5.406;2022-11-30T06:01:19;102236.34;;;6.11;100.00
54042;BME280;41156;51.508;5.406;2022-11-30T06:04:20;102231.84;;;6.11;100.00
54042;BME280;41156;51.508;5.406;2022-11-30T06:07:21;102244.09;;;6.14;100.00
54042;BME280;41156;51.508;5.406;2022-11-30T06:10:21;102238.88;;;6.13;100.00
54042;BME280;41156;51.508;5.406;2022-11-30T06:13:27;102247.09;;;6.11;100.00
54042;BME280;41156;51.508;5.406;2022-11-30T06:16:27;102244.41;;;6.11;100.00
54042;BME280;41156;51.508;5.406;2022-11-30T06:19:27;102244.41;;;6.11;100.00
54042;BME280;41156;51.508;5.406;2022-11-30T06:22:27;102239.19;;;6.09;100.00
54042;BME280;41156;51.508;5.406;2022-11-30T06:25:28;102239.75;;;6.13;100.00
54042;BME280;41156;51.508;5.406;2022-11-30T06:28:28;102246.78;;;6.14;100.00
54042;BME280;41156;51.508;5.406;2022-11-30T06:31:32;102241.41;;;6.14;100.00
54042;BME280;41156;51.508;5.406;2022-11-30T06:34:32;102245.13;;;6.13;100.00
54042;BME280;41156;51.508;5.406;2022-11-30T06:37:33;102248.50;;;6.15;100.00
54042;BME280;41156;51.508;5.406;2022-11-30T06:40:35;102250.19;;;6.16;100.00
54042;BME280;41156;51.508;5.406;2022-11-30T06:43:37;102255.56;;;6.16;100.00
54042;BME280;41156;51.508;5.406;2022-11-30T06:46:37;102247.50;;;6.16;100.00
54042;BME280;41156;51.508;5.406;2022-11-30T06:49:37;102247.31;;;6.18;100.00
54042;BME280;41156;51.508;5.406;2022-11-30T06:52:38;102252.88;;;6.16;100.00
54042;BME280;41156;51.508;5.406;2022-11-30T06:55:38;102252.88;;;6.16;100.00
54042;BME280;41156;51.508;5.406;2022-11-30T06:58:39;102267.13;;;6.17;100.00
54042;BME280;41156;51.508;5.406;2022-11-30T07:01:40;102262.59;;;6.17;100.00
54042;BME280;41156;51.508;5.406;2022-11-30T07:04:40;102264.31;;;6.18;100.00
54042;BME280;41156;51.508;5.406;2022-11-30T07:07:41;102265.13;;;6.19;100.00
54042;BME280;41156;51.508;5.406;2022-11-30T07:10:45;102259.75;;;6.19;100.00
54042;BME280;41156;51.508;5.406;2022-11-30T07:13:46;102262.44;;;6.19;100.00
54042;BME280;41156;51.508;5.406;2022-11-30T07:16:46;102269.53;;;6.20;100.00
54042;BME280;41156;51.508;5.406;2022-11-30T07:19:46;102265.13;;;6.19;100.00
54042;BME280;41156;51.508;5.406;2022-11-30T07:22:47;102276.72;;;6.19;100.00
54042;BME280;41156;51.508;5.406;2022-11-30T07:25:48;102283.09;;;6.18;100.00
54042;BME280;41156;51.508;5.406;2022-11-30T07:29:08;102287.44;;;6.19;100.00
54042;BME280;41156;51.508;5.406;2022-11-30T07:32:08;102290.84;;;6.21;100.00
54042;BME280;41156;51.508;5.406;2022-11-30T07:35:08;102291.81;;;6.20;100.00
54042;BME280;41156;51.508;5.406;2022-11-30T07:38:09;102292.81;;;6.19;100.00
54042;BME280;41156;51.508;5.406;2022-11-30T07:41:09;102294.50;;;6.20;100.00
54042;BME280;41156;51.508;5.406;2022-11-30T07:44:10;102300.41;;;6.24;100.00
54042;BME280;41156;51.508;5.406;2022-11-30T07:47:10;102304.94;;;6.23;100.00
54042;BME280;41156;51.508;5.406;2022-11-30T07:50:11;102317.06;;;6.27;100.00
54042;BME280;41156;51.508;5.406;2022-11-30T07:53:11;102312.41;;;6.29;100.00
54042;BME280;41156;51.508;5.406;2022-11-30T07:56:14;102311.41;;;6.30;100.00
54042;BME280;41156;51.508;5.406;2022-11-30T07:59:14;102314.78;;;6.33;100.00
54042;BME280;41156;51.508;5.406;2022-11-30T08:02:14;102307.44;;;6.35;100.00
54042;BME280;41156;51.508;5.406;2022-11-30T08:05:15;102318.72;;;6.38;100.00
54042;BME280;41156;51.508;5.406;2022-11-30T08:08:15;102321.25;;;6.40;100.00
54042;BME280;41156;51.508;5.406;2022-11-30T08:11:18;102317.53;;;6.41;100.00
54042;BME280;41156;51.508;5.406;2022-11-30T08:14:19;102322.63;;;6.44;100.00
54042;BME280;41156;51.508;5.406;2022-11-30T08:17:19;102326.00;;;6.46;100.00
54042;BME280;41156;51.508;5.406;2022-11-30T08:20:20;102324.03;;;6.48;100.00
54042;BME280;41156;51.508;5.406;2022-11-30T08:23:20;102326.56;;;6.50;100.00
54042;BME280;41156;51.508;5.406;2022-11-30T08:26:27;102327.41;;;6.50;100.00
54042;BME280;41156;51.508;5.406;2022-11-30T08:29:27;102329.69;;;6.45;100.00
54042;BME280;41156;51.508;5.406;2022-11-30T08:32:28;102335.59;;;6.48;100.00
54042;BME280;41156;51.508;5.406;2022-11-30T08:35:28;102333.44;;;6.52;100.00
54042;BME280;41156;51.508;5.406;2022-11-30T08:38:29;102335.84;;;6.55;100.00
54042;BME280;41156;51.508;5.406;2022-11-30T08:41:30;102347.13;;;6.59;100.00
54042;BME280;41156;51.508;5.406;2022-11-30T08:44:30;102355.03;;;6.60;100.00
54042;BME280;41156;51.508;5.406;2022-11-30T08:47:31;102352.03;;;6.63;100.00
54042;BME280;41156;51.508;5.406;2022-11-30T08:50:31;102354.88;;;6.62;100.00
54042;BME280;41156;51.508;5.406;2022-11-30T08:53:32;102359.56;;;6.60;100.00
54042;BME280;41156;51.508;5.406;2022-11-30T08:56:33;102355.78;;;6.53;100.00
54042;BME280;41156;51.508;5.406;2022-11-30T08:59:34;102357.91;;;6.49;100.00
54042;BME280;41156;51.508;5.406;2022-11-30T09:02:36;102352.25;;;6.52;100.00
54042;BME280;41156;51.508;5.406;2022-11-30T09:05:36;102355.31;;;6.57;100.00
54042;BME280;41156;51.508;5.406;2022-11-30T09:08:36;102353.91;;;6.63;100.00
54042;BME280;41156;51.508;5.406;2022-11-30T09:11:36;102360.34;;;6.70;100.00
54042;BME280;41156;51.508;5.406;2022-11-30T09:14:38;102366.25;;;6.74;100.00
54042;BME280;41156;51.508;5.406;2022-11-30T09:17:38;102359.41;;;6.79;100.00
54042;BME280;41156;51.508;5.406;2022-11-30T09:20:38;102366.19;;;6.83;100.00
54042;BME280;41156;51.508;5.406;2022-11-30T09:23:39;102372.47;;;6.92;100.00
54042;BME280;41156;51.508;5.406;2022-11-30T09:26:39;102369.72;;;7.02;100.00
54042;BME280;41156;51.508;5.406;2022-11-30T09:29:40;102374.47;;;7.08;100.00
54042;BME280;41156;51.508;5.406;2022-11-30T09:32:40;102372.72;;;7.17;100.00
54042;BME280;41156;51.508;5.406;2022-11-30T09:35:40;102375.16;;;7.28;100.00
54042;BME280;41156;51.508;5.406;2022-11-30T09:38:41;102376.22;;;7.35;100.00
54042;BME280;41156;51.508;5.406;2022-11-30T09:41:51;102373.91;;;7.40;100.00
54042;BME280;41156;51.508;5.406;2022-11-30T09:51:43;102364.53;;;7.45;100.00
54042;BME280;41156;51.508;5.406;2022-11-30T09:54:44;102364.69;;;7.43;100.00
54042;BME280;41156;51.508;5.406;2022-11-30T09:57:52;102368.75;;;7.47;100.00
54042;BME280;41156;51.508;5.406;2022-11-30T10:00:53;102366.94;;;7.56;100.00
54042;BME280;41156;51.508;5.406;2022-11-30T10:03:53;102378.53;;;7.74;100.00
54042;BME280;41156;51.508;5.406;2022-11-30T10:10:56;102365.69;;;7.68;100.00
54042;BME280;41156;51.508;5.406;2022-11-30T10:20:48;102364.09;;;7.57;100.00
54042;BME280;41156;51.508;5.406;2022-11-30T10:24:14;102363.41;;;7.55;100.00
54042;BME280;41156;51.508;5.406;2022-11-30T10:30:49;102356.75;;;7.59;100.00
54042;BME280;41156;51.508;5.406;2022-11-30T10:33:51;102358.00;;;7.73;100.00
54042;BME280;41156;51.508;5.406;2022-11-30T10:40:39;102352.28;;;8.11;100.00
54042;BME280;41156;51.508;5.406;2022-11-30T10:44:13;102353.69;;;8.23;100.00
54042;BME280;41156;51.508;5.406;2022-11-30T10:47:19;102344.81;;;8.39;100.00
54042;BME280;41156;51.508;5.406;2022-11-30T10:50:24;102350.63;;;8.61;100.00
54042;BME280;41156;51.508;5.406;2022-11-30T10:53:25;102350.16;;;8.74;100.00
54042;BME280;41156;51.508;5.406;2022-11-30T10:56:26;102344.44;;;8.77;100.00
54042;BME280;41156;51.508;5.406;2022-11-30T10:59:38;102348.69;;;8.79;100.00
54042;BME280;41156;51.508;5.406;2022-11-30T11:02:43;102343.44;;;8.78;100.00
54042;BME280;41156;51.508;5.406;2022-11-30T11:05:44;102341.59;;;8.78;100.00
54042;BME280;41156;51.508;5.406;2022-11-30T11:08:45;102342.94;;;8.82;100.00
54042;BME280;41156;51.508;5.406;2022-11-30T11:11:52;102342.25;;;8.88;100.00
54042;BME280;41156;51.508;5.406;2022-11-30T11:15:17;102343.97;;;8.89;100.00
54042;BME280;41156;51.508;5.406;2022-11-30T11:18:23;102341.78;;;8.93;100.00
54042;BME280;41156;51.508;5.406;2022-11-30T11:21:25;102338.56;;;8.89;100.00
54042;BME280;41156;51.508;5.406;2022-11-30T11:24:26;102341.59;;;8.86;100.00
54042;BME280;41156;51.508;5.406;2022-11-30T11:27:31;102336.22;;;8.86;100.00
54042;BME280;41156;51.508;5.406;2022-11-30T11:30:32;102330.31;;;8.83;100.00
54042;BME280;41156;51.508;5.406;2022-11-30T11:33:32;102337.91;;;8.79;100.00
54042;BME280;41156;51.508;5.406;2022-11-30T11:36:33;102334.50;;;8.77;100.00
54042;BME280;41156;51.508;5.406;2022-11-30T11:39:35;102339.22;;;8.75;100.00
54042;BME280;41156;51.508;5.406;2022-11-30T11:42:53;102336.34;;;8.68;100.00
54042;BME280;41156;51.508;5.406;2022-11-30T11:45:56;102338.22;;;8.68;100.00
54042;BME280;41156;51.508;5.406;2022-11-30T11:49:00;102333.81;;;8.67;100.00
54042;BME280;41156;51.508;5.406;2022-11-30T11:52:05;102339.53;;;8.64;100.00
54042;BME280;41156;51.508;5.406;2022-11-30T11:55:12;102344.56;;;8.59;100.00
54042;BME280;41156;51.508;5.406;2022-11-30T11:58:21;102341.69;;;8.52;100.00
54042;BME280;41156;51.508;5.406;2022-11-30T12:01:35;102348.91;;;8.43;100.00
54042;BME280;41156;51.508;5.406;2022-11-30T12:04:43;102341.09;;;8.32;100.00
54042;BME280;41156;51.508;5.406;2022-11-30T12:13:54;102338.84;;;8.19;100.00
54042;BME280;41156;51.508;5.406;2022-11-30T12:17:27;102337.56;;;8.31;100.00
54042;BME280;41156;51.508;5.406;2022-11-30T12:20:49;102336.41;;;8.42;100.00
54042;BME280;41156;51.508;5.406;2022-11-30T12:24:08;102339.31;;;8.49;100.00
54042;BME280;41156;51.508;5.406;2022-11-30T12:27:24;102347.59;;;8.56;100.00
54042;BME280;41156;51.508;5.406;2022-11-30T12:30:34;102339.53;;;8.64;100.00
54042;BME280;41156;51.508;5.406;2022-11-30T12:34:03;102338.19;;;8.60;100.00
54042;BME280;41156;51.508;5.406;2022-11-30T12:43:57;102348.00;;;8.85;100.00
54042;BME280;41156;51.508;5.406;2022-11-30T12:57:47;102347.91;;;8.44;100.00
54042;BME280;41156;51.508;5.406;2022-11-30T13:04:33;102345.44;;;8.17;100.00
54042;BME280;41156;51.508;5.406;2022-11-30T13:07:41;102357.50;;;8.12;100.00
54042;BME280;41156;51.508;5.406;2022-11-30T13:10:48;102350.25;;;8.05;100.00
54042;BME280;41156;51.508;5.406;2022-11-30T13:13:54;102355.47;;;8.06;100.00
54042;BME280;41156;51.508;5.406;2022-11-30T13:17:01;102349.06;;;8.07;100.00
54042;BME280;41156;51.508;5.406;2022-11-30T13:23:34;102366.25;;;8.06;100.00
54042;BME280;41156;51.508;5.406;2022-11-30T13:26:43;102359.16;;;8.05;100.00
54042;BME280;41156;51.508;5.406;2022-11-30T13:36:36;102357.03;;;8.17;100.00
54042;BME280;41156;51.508;5.406;2022-11-30T13:39:46;102355.88;;;8.20;100.00
54042;BME280;41156;51.508;5.406;2022-11-30T13:42:47;102357.53;;;8.21;100.00
54042;BME280;41156;51.508;5.406;2022-11-30T13:45:47;102353.03;;;8.21;100.00
54042;BME280;41156;51.508;5.406;2022-11-30T13:48:48;102352.47;;;8.18;100.00
54042;BME280;41156;51.508;5.406;2022-11-30T13:52:11;102355.38;;;8.16;100.00
54042;BME280;41156;51.508;5.406;2022-11-30T13:58:34;102359.84;;;8.07;100.00
54042;BME280;41156;51.508;5.406;2022-11-30T14:01:35;102360.16;;;7.96;100.00
54042;BME280;41156;51.508;5.406;2022-11-30T14:04:43;102362.78;;;7.88;100.00
54042;BME280;41156;51.508;5.406;2022-11-30T14:10:52;102365.69;;;7.94;100.00
54042;BME280;41156;51.508;5.406;2022-11-30T14:13:53;102369.22;;;7.95;100.00
54042;BME280;41156;51.508;5.406;2022-11-30T14:16:55;102377.13;;;7.96;100.00
54042;BME280;41156;51.508;5.406;2022-11-30T14:20:16;102381.69;;;7.96;100.00
54042;BME280;41156;51.508;5.406;2022-11-30T14:23:32;102379.97;;;7.95;100.00
54042;BME280;41156;51.508;5.406;2022-11-30T14:26:43;102385.38;;;7.95;100.00
54042;BME280;41156;51.508;5.406;2022-11-30T14:29:47;102387.38;;;7.93;100.00
54042;BME280;41156;51.508;5.406;2022-11-30T14:32:58;102388.38;;;7.92;100.00
54042;BME280;41156;51.508;5.406;2022-11-30T14:36:00;102388.00;;;7.87;100.00
54042;BME280;41156;51.508;5.406;2022-11-30T14:39:01;102387.34;;;7.85;100.00
54042;BME280;41156;51.508;5.406;2022-11-30T14:42:04;102387.66;;;7.82;100.00
54042;BME280;41156;51.508;5.406;2022-11-30T14:45:17;102391.63;;;7.77;100.00
54042;BME280;41156;51.508;5.406;2022-11-30T14:48:17;102391.78;;;7.76;100.00
54042;BME280;41156;51.508;5.406;2022-11-30T14:51:18;102397.69;;;7.71;100.00
54042;BME280;41156;51.508;5.406;2022-11-30T14:57:51;102392.75;;;7.67;100.00
54042;BME280;41156;51.508;5.406;2022-11-30T15:00:53;102397.63;;;7.63;100.00
54042;BME280;41156;51.508;5.406;2022-11-30T15:04:04;102402.63;;;7.58;100.00
54042;BME280;41156;51.508;5.406;2022-11-30T15:07:11;102400.25;;;7.55;100.00
54042;BME280;41156;51.508;5.406;2022-11-30T15:10:38;102401.69;;;7.49;100.00
54042;BME280;41156;51.508;5.406;2022-11-30T15:14:06;102396.09;;;7.43;100.00
54042;BME280;41156;51.508;5.406;2022-11-30T15:17:12;102393.75;;;7.39;100.00
54042;BME280;41156;51.508;5.406;2022-11-30T15:20:23;102394.34;;;7.33;100.00
54042;BME280;41156;51.508;5.406;2022-11-30T15:23:25;102395.81;;;7.28;100.00
54042;BME280;41156;51.508;5.406;2022-11-30T15:26:35;102399.06;;;7.13;100.00
54042;BME280;41156;51.508;5.406;2022-11-30T15:29:40;102401.81;;;7.03;100.00
54042;BME280;41156;51.508;5.406;2022-11-30T15:32:46;102404.72;;;6.92;100.00
54042;BME280;41156;51.508;5.406;2022-11-30T15:35:49;102406.63;;;6.82;100.00
54042;BME280;41156;51.508;5.406;2022-11-30T15:38:50;102408.84;;;6.69;100.00
54042;BME280;41156;51.508;5.406;2022-11-30T15:41:59;102407.91;;;6.60;100.00
54042;BME280;41156;51.508;5.406;2022-11-30T15:48:32;102406.94;;;6.51;100.00
54042;BME280;41156;51.508;5.406;2022-11-30T15:51:42;102404.34;;;6.41;100.00
54042;BME280;41156;51.508;5.406;2022-11-30T15:58:01;102406.28;;;6.21;100.00
54042;BME280;41156;51.508;5.406;2022-11-30T16:01:08;102413.19;;;6.14;100.00
54042;BME280;41156;51.508;5.406;2022-11-30T16:04:08;102415.88;;;6.14;100.00
54042;BME280;41156;51.508;5.406;2022-11-30T16:07:18;102414.06;;;6.15;100.00
54042;BME280;41156;51.508;5.406;2022-11-30T16:10:24;102410.22;;;6.17;100.00
54042;BME280;41156;51.508;5.406;2022-11-30T16:13:26;102415.44;;;6.19;100.00
54042;BME280;41156;51.508;5.406;2022-11-30T16:16:30;102413.16;;;6.24;100.00
54042;BME280;41156;51.508;5.406;2022-11-30T16:19:31;102420.25;;;6.25;100.00
54042;BME280;41156;51.508;5.406;2022-11-30T16:22:40;102422.50;;;6.29;100.00
54042;BME280;41156;51.508;5.406;2022-11-30T16:25:41;102421.19;;;6.34;100.00
54042;BME280;41156;51.508;5.406;2022-11-30T16:28:42;102424.56;;;6.36;100.00
54042;BME280;41156;51.508;5.406;2022-11-30T16:31:43;102425.25;;;6.38;100.00
54042;BME280;41156;51.508;5.406;2022-11-30T16:34:43;102435.00;;;6.39;100.00
54042;BME280;41156;51.508;5.406;2022-11-30T16:37:43;102429.34;;;6.42;100.00
54042;BME280;41156;51.508;5.406;2022-11-30T16:40:44;102431.03;;;6.43;100.00
54042;BME280;41156;51.508;5.406;2022-11-30T16:43:53;102436.25;;;6.44;100.00
54042;BME280;41156;51.508;5.406;2022-11-30T16:46:53;102432.56;;;6.45;100.00
54042;BME280;41156;51.508;5.406;2022-11-30T16:49:53;102437.78;;;6.47;100.00
54042;BME280;41156;51.508;5.406;2022-11-30T16:52:54;102437.78;;;6.47;100.00
54042;BME280;41156;51.508;5.406;2022-11-30T16:55:54;102440.47;;;6.47;100.00
54042;BME280;41156;51.508;5.406;2022-11-30T16:58:54;102445.84;;;6.47;100.00
54042;BME280;41156;51.508;5.406;2022-11-30T17:01:54;102454.06;;;6.45;100.00
54042;BME280;41156;51.508;5.406;2022-11-30T17:04:55;102452.34;;;6.44;100.00
54042;BME280;41156;51.508;5.406;2022-11-30T17:07:55;102454.19;;;6.44;100.00
54042;BME280;41156;51.508;5.406;2022-11-30T17:10:55;102460.59;;;6.43;100.00
54042;BME280;41156;51.508;5.406;2022-11-30T17:13:56;102463.56;;;6.40;100.00
54042;BME280;41156;51.508;5.406;2022-11-30T17:16:56;102461.84;;;6.39;100.00
54042;BME280;41156;51.508;5.406;2022-11-30T17:19:56;102466.53;;;6.37;100.00
54042;BME280;41156;51.508;5.406;2022-11-30T17:22:57;102470.91;;;6.38;100.00
54042;BME280;41156;51.508;5.406;2022-11-30T17:25:57;102469.50;;;6.34;100.00
54042;BME280;41156;51.508;5.406;2022-11-30T17:28:57;102466.13;;;6.32;100.00
54042;BME280;41156;51.508;5.406;2022-11-30T17:31:57;102466.28;;;6.30;100.00
54042;BME280;41156;51.508;5.406;2022-11-30T17:34:58;102467.41;;;6.27;100.00
54042;BME280;41156;51.508;5.406;2022-11-30T17:37:58;102466.56;;;6.27;100.00